Time;durP1;ratioP1;P1;durP2;ratioP2;P2;SDS_P1;SDS_P2;PMS_P1;PMS_P2;Temp;Humidity;BMP_temperature;BMP_pressure;BME280_temperature;BME280_humidity;BME280_pressure;Samples;Min_cycle;Max_cycle;Signal;HPM_P1;HPM_P2
2023/01/03 00:01:51;;;;;;;3.08;1.30;;;9.40;99.90;;;;;;4974515;28;20023;-69
2023/01/03 00:04:16;;;;;;;;;;;9.30;99.90;;;;;;4976948;28;20031;-68
2023/01/03 00:06:47;;;;;;;2.00;1.40;;;9.30;99.90;;;;;;4980012;28;20427;-69
2023/01/03 00:09:16;;;;;;;1.58;0.93;;;9.30;99.90;;;;;;4980000;28;20019;-69
2023/01/03 00:14:35;;;;;;;3.35;1.10;;;9.20;99.90;;;;;;4977843;28;20093;-68
2023/01/03 00:17:01;;;;;;;3.25;1.08;;;9.30;99.90;;;;;;4975996;28;20049;-68
2023/01/03 00:19:31;;;;;;;1.35;0.98;;;9.30;99.90;;;;;;4974971;28;20090;-68
2023/01/03 00:21:56;;;;;;;1.73;1.30;;;9.30;99.90;;;;;;4974744;28;20518;-68
2023/01/03 00:24:22;;;;;;;1.67;1.13;;;9.30;99.90;;;;;;4977048;28;20030;-68
2023/01/03 00:26:48;;;;;;;3.78;1.30;;;9.30;99.90;;;;;;4975702;28;20085;-68
2023/01/03 00:29:14;;;;;;;2.43;1.50;;;9.30;99.90;;;;;;4976044;28;20031;-68
2023/01/03 00:31:40;;;;;;;4.07;1.42;;;9.30;99.90;;;;;;4974916;28;20023;-68
2023/01/03 00:34:07;;;;;;;3.53;1.60;;;9.30;99.90;;;;;;4974896;28;20439;-68
2023/01/03 00:36:32;;;;;;;3.83;1.50;;;9.20;99.90;;;;;;4975733;28;20031;-69
2023/01/03 00:38:59;;;;;;;2.15;1.30;;;9.10;99.90;;;;;;4974101;28;20483;-68
2023/01/03 00:41:25;;;;;;;2.78;1.38;;;9.20;99.90;;;;;;4975571;28;20038;-67
2023/01/03 00:43:50;;;;;;;2.53;1.40;;;9.20;99.90;;;;;;4975257;28;20035;-68
2023/01/03 00:46:18;;;;;;;3.07;1.23;;;9.20;99.90;;;;;;4973844;28;20035;-68
2023/01/03 00:48:43;;;;;;;3.33;1.60;;;9.20;99.90;;;;;;4975262;28;20026;-67
2023/01/03 00:51:12;;;;;;;1.70;1.13;;;9.20;99.90;;;;;;4975492;28;20381;-67
2023/01/03 00:53:38;;;;;;;2.13;1.10;;;9.20;99.90;;;;;;4975286;28;20041;-68
2023/01/03 00:56:11;;;;;;;2.95;1.30;;;9.20;99.90;;;;;;4980988;28;20077;-67
2023/01/03 00:58:37;;;;;;;1.83;1.20;;;9.30;99.90;;;;;;4973767;28;20031;-67
2023/01/03 01:01:23;;;;;;;1.27;0.90;;;9.40;99.90;;;;;;4974108;28;20105;-68
2023/01/03 01:03:53;;;;;;;1.60;1.10;;;9.40;99.90;;;;;;4975601;28;20081;-68
2023/01/03 01:06:31;;;;;;;1.58;1.10;;;9.30;99.90;;;;;;4973852;28;20031;-68
2023/01/03 01:08:58;;;;;;;2.50;1.00;;;9.30;99.90;;;;;;4975538;28;20030;-68
2023/01/03 01:11:25;;;;;;;1.88;1.10;;;9.20;99.90;;;;;;4973867;28;20031;-68
2023/01/03 01:13:51;;;;;;;2.10;0.90;;;9.10;99.90;;;;;;4975024;28;20034;-69
2023/01/03 01:16:20;;;;;;;2.00;1.23;;;9.10;99.90;;;;;;4975522;28;20027;-68
2023/01/03 01:18:47;;;;;;;2.53;1.25;;;9.10;99.90;;;;;;4974787;28;20086;-68
2023/01/03 01:21:25;;;;;;;1.60;1.08;;;9.10;99.90;;;;;;4974433;28;20377;-68
2023/01/03 01:23:52;;;;;;;1.90;1.10;;;9.10;99.90;;;;;;4974854;28;20029;-68
2023/01/03 01:26:21;;;;;;;1.42;1.30;;;9.00;99.90;;;;;;4985829;28;20024;-68
2023/01/03 01:28:49;;;;;;;3.65;1.10;;;9.00;99.90;;;;;;4993981;28;20029;-68
2023/01/03 01:31:18;;;;;;;2.13;1.40;;;9.00;99.90;;;;;;4992550;28;20022;-68
2023/01/03 01:33:44;;;;;;;2.28;1.10;;;9.00;99.90;;;;;;4992724;28;20165;-68
2023/01/03 01:36:26;;;;;;;4.57;1.40;;;9.10;99.90;;;;;;4993862;28;20026;-68
2023/01/03 01:38:55;;;;;;;2.80;1.48;;;9.00;99.90;;;;;;4993987;28;20483;-68
2023/01/03 01:44:38;;;;;;;2.42;1.67;;;9.00;99.90;;;;;;4994375;28;20077;-69
2023/01/03 01:47:06;;;;;;;;;;;9.00;99.90;;;;;;4994069;28;20419;-68
2023/01/03 01:49:31;;;;;;;3.15;1.23;;;8.90;99.90;;;;;;4996071;28;20402;-69
2023/01/03 01:51:57;;;;;;;2.67;1.33;;;8.90;99.90;;;;;;4996286;28;20056;-69
2023/01/03 01:54:23;;;;;;;2.03;1.30;;;8.90;99.90;;;;;;4993634;28;20318;-68
2023/01/03 01:56:51;;;;;;;2.38;1.30;;;9.00;99.90;;;;;;4989001;28;20480;-68
2023/01/03 01:59:17;;;;;;;5.20;1.60;;;9.10;99.90;;;;;;4976192;28;20089;-68
2023/01/03 02:01:45;;;;;;;1.83;1.10;;;9.00;99.90;;;;;;4979980;28;20030;-69
2023/01/03 02:04:23;;;;;;;2.35;1.20;;;9.10;99.90;;;;;;4974175;28;20481;-68
2023/01/03 02:06:50;;;;;;;1.67;1.10;;;9.00;99.90;;;;;;4972901;28;20432;-69
2023/01/03 02:09:16;;;;;;;1.80;1.20;;;9.00;99.90;;;;;;4980619;28;20110;-68
2023/01/03 02:15:07;;;;;;;1.95;1.23;;;9.00;99.90;;;;;;4981267;28;20038;-69
2023/01/03 02:17:53;;;;;;;3.38;1.50;;;9.00;99.90;;;;;;4980688;28;20030;-69
2023/01/03 02:20:22;;;;;;;2.25;1.40;;;8.90;99.90;;;;;;4981610;28;20031;-70
2023/01/03 02:23:03;;;;;;;3.10;1.42;;;8.90;99.90;;;;;;4982461;28;20038;-69
2023/01/03 02:25:43;;;;;;;3.28;1.40;;;8.80;99.90;;;;;;4983417;28;20049;-69
2023/01/03 02:28:20;;;;;;;1.95;1.40;;;8.80;99.90;;;;;;4975812;28;20105;-68
2023/01/03 02:30:58;;;;;;;2.25;1.40;;;8.80;99.90;;;;;;4974098;28;20158;-70
2023/01/03 02:33:38;;;;;;;3.28;1.90;;;8.70;99.90;;;;;;4977953;28;20377;-68
2023/01/03 02:36:29;;;;;;;3.00;1.60;;;8.60;99.90;;;;;;4976404;28;20502;-68
2023/01/03 02:39:13;;;;;;;2.55;1.60;;;8.60;99.90;;;;;;4977614;28;20030;-69
2023/01/03 02:42:56;;;;;;;3.05;1.55;;;8.60;99.90;;;;;;4977373;28;20077;-69
2023/01/03 02:44:52;;;;;;;1.52;1.20;;;8.60;99.90;;;;;;4977632;28;20046;-69
2023/01/03 02:47:22;;;;;;;3.25;1.73;;;8.70;99.90;;;;;;4978386;28;20176;-68
2023/01/03 02:49:52;;;;;;;3.03;1.55;;;8.70;99.90;;;;;;4978205;28;20054;-68
2023/01/03 02:52:22;;;;;;;3.08;1.60;;;8.70;99.90;;;;;;4978758;28;20023;-69
2023/01/03 02:54:59;;;;;;;2.05;1.58;;;8.70;99.90;;;;;;4979471;28;20026;-69
2023/01/03 02:57:32;;;;;;;3.97;1.70;;;8.60;99.90;;;;;;5000991;28;20049;-69
2023/01/03 03:00:07;;;;;;;3.40;1.35;;;8.70;99.90;;;;;;4999876;28;20383;-69
2023/01/03 03:02:35;;;;;;;2.63;1.55;;;8.60;99.90;;;;;;5001114;28;20026;-69
2023/01/03 03:05:05;;;;;;;2.28;1.55;;;8.50;99.90;;;;;;5003741;28;20395;-69
2023/01/03 03:07:38;;;;;;;2.00;1.45;;;8.50;99.90;;;;;;4997309;28;20029;-69
2023/01/03 03:13:12;;;;;;;5.03;1.60;;;8.30;99.90;;;;;;4997070;28;20487;-69
2023/01/03 03:16:02;;;;;;;2.65;1.48;;;8.20;99.90;;;;;;4997571;28;20027;-68
2023/01/03 03:18:39;;;;;;;2.10;1.65;;;8.30;99.90;;;;;;4996687;28;20084;-68
2023/01/03 03:26:43;;;;;;;2.90;1.90;;;8.30;99.90;;;;;;4999210;28;20072;-69
2023/01/03 03:29:17;;;;;;;2.95;1.65;;;8.20;99.90;;;;;;4998892;28;20030;-69
2023/01/03 03:31:47;;;;;;;1.92;1.33;;;8.20;99.90;;;;;;4997543;28;20502;-68
2023/01/03 03:34:31;;;;;;;3.28;1.48;;;8.30;99.90;;;;;;4998475;28;20464;-68
2023/01/03 03:37:07;;;;;;;4.50;1.80;;;8.30;99.90;;;;;;4996692;28;20035;-68
2023/01/03 03:45:28;;;;;;;1.75;1.15;;;8.40;99.90;;;;;;4995833;28;20030;-68
2023/01/03 03:48:09;;;;;;;2.30;1.40;;;8.30;99.90;;;;;;4995625;28;20437;-68
2023/01/03 03:50:56;;;;;;;3.10;1.50;;;8.20;99.90;;;;;;4995427;28;20018;-69
2023/01/03 03:53:25;;;;;;;2.38;1.52;;;8.20;99.90;;;;;;4995550;28;20121;-68
2023/01/03 03:56:00;;;;;;;2.45;1.45;;;8.20;99.90;;;;;;4995530;28;20026;-68
2023/01/03 03:58:29;;;;;;;4.90;2.25;;;8.20;99.90;;;;;;4995291;28;20035;-68
2023/01/03 04:00:56;;;;;;;2.00;1.33;;;8.20;99.90;;;;;;4995292;28;20452;-69
2023/01/03 04:03:24;;;;;;;3.75;1.40;;;8.20;99.90;;;;;;4994837;28;20026;-68
2023/01/03 04:05:54;;;;;;;2.00;1.30;;;8.20;99.90;;;;;;4994477;28;20023;-69
2023/01/03 04:08:20;;;;;;;2.78;1.38;;;8.30;99.90;;;;;;4995198;28;20018;-68
2023/01/03 04:10:46;;;;;;;5.82;1.23;;;8.20;99.90;;;;;;4995273;28;20026;-68
2023/01/03 04:13:11;;;;;;;1.77;1.50;;;8.20;99.90;;;;;;4995467;28;20490;-68
2023/01/03 04:15:37;;;;;;;2.73;1.50;;;8.10;99.90;;;;;;4994069;28;20026;-68
2023/01/03 04:18:02;;;;;;;2.30;1.50;;;8.20;99.90;;;;;;4994231;28;20045;-69
2023/01/03 04:20:28;;;;;;;3.40;1.60;;;8.20;99.90;;;;;;4995124;28;20022;-68
2023/01/03 04:22:54;;;;;;;3.25;1.50;;;8.20;99.90;;;;;;4995283;28;20386;-68
2023/01/03 04:25:20;;;;;;;2.50;1.70;;;8.20;99.90;;;;;;4995207;28;20058;-68
2023/01/03 04:27:45;;;;;;;3.77;1.33;;;8.20;99.90;;;;;;4994980;28;20105;-68
2023/01/03 04:30:11;;;;;;;2.47;1.27;;;8.10;99.90;;;;;;4995261;28;20027;-69
2023/01/03 04:32:37;;;;;;;2.90;1.33;;;8.10;99.90;;;;;;4995581;28;20037;-69
2023/01/03 04:35:03;;;;;;;2.47;1.33;;;8.20;99.90;;;;;;4995103;28;20039;-68
2023/01/03 04:37:29;;;;;;;3.08;1.50;;;8.30;99.90;;;;;;4995529;28;20383;-68
2023/01/03 04:39:54;;;;;;;2.97;1.70;;;8.30;99.90;;;;;;4997338;28;20035;-68
2023/01/03 04:45:05;;;;;;;4.53;1.58;;;8.10;99.90;;;;;;4994949;28;20076;-69
2023/01/03 04:47:30;;;;;;;;;;;8.00;99.90;;;;;;4994959;28;20019;-69
2023/01/03 04:49:56;;;;;;;1.92;1.40;;;8.00;99.90;;;;;;4994262;28;19917;-69
2023/01/03 04:52:21;;;;;;;4.13;1.90;;;8.00;99.90;;;;;;4993810;28;20376;-68
2023/01/03 04:54:47;;;;;;;3.27;1.80;;;8.00;99.90;;;;;;4994322;28;20037;-68
2023/01/03 04:57:12;;;;;;;3.10;1.50;;;8.10;99.90;;;;;;4994897;28;20152;-69
2023/01/03 04:59:38;;;;;;;1.97;1.30;;;8.20;99.90;;;;;;4993659;28;20033;-68
2023/01/03 05:02:04;;;;;;;2.60;1.40;;;8.20;99.90;;;;;;4994260;28;20022;-68
2023/01/03 05:04:29;;;;;;;3.70;2.40;;;8.20;99.90;;;;;;4994227;28;20379;-68
2023/01/03 05:06:55;;;;;;;3.63;1.90;;;8.10;99.90;;;;;;4994275;28;20030;-69
2023/01/03 05:09:21;;;;;;;2.97;1.95;;;8.10;99.90;;;;;;4994318;28;20149;-68
2023/01/03 05:11:47;;;;;;;4.43;2.10;;;8.00;99.90;;;;;;4992905;28;20069;-68
2023/01/03 05:14:12;;;;;;;2.28;1.52;;;8.10;99.90;;;;;;4992944;28;20117;-68
2023/01/03 05:16:38;;;;;;;5.07;2.00;;;8.00;99.90;;;;;;4992799;28;20053;-69
2023/01/03 05:19:03;;;;;;;3.07;2.17;;;7.80;99.90;;;;;;4994389;28;20042;-69
2023/01/03 05:27:01;;;;;;;5.70;2.55;;;7.80;99.90;;;;;;4994201;28;20093;-68
2023/01/03 05:29:28;;;;;;;3.80;1.90;;;7.90;99.90;;;;;;4994188;28;20026;-68
2023/01/03 05:31:54;;;;;;;3.30;1.88;;;7.90;99.90;;;;;;4993526;28;20032;-68
2023/01/03 05:34:19;;;;;;;4.68;1.88;;;7.90;99.90;;;;;;4994916;28;20180;-69
2023/01/03 05:36:45;;;;;;;4.97;1.90;;;7.90;99.90;;;;;;4994727;28;20037;-68
2023/01/03 05:39:11;;;;;;;4.90;1.53;;;7.80;99.90;;;;;;4994291;28;20472;-68
2023/01/03 05:44:21;;;;;;;2.72;1.58;;;7.90;99.90;;;;;;4993972;28;20037;-68
2023/01/03 05:46:47;;;;;;;6.32;1.95;;;7.90;99.90;;;;;;4993726;28;20023;-68
2023/01/03 05:49:12;;;;;;;3.20;2.13;;;7.90;99.90;;;;;;4992410;28;20476;-68
2023/01/03 05:51:38;;;;;;;3.63;1.90;;;8.00;99.90;;;;;;4993549;28;20031;-68
2023/01/03 05:54:04;;;;;;;2.67;1.80;;;7.90;99.90;;;;;;4993513;28;20027;-68
2023/01/03 05:56:30;;;;;;;3.17;1.77;;;7.90;99.90;;;;;;4993883;28;20029;-68
2023/01/03 05:58:56;;;;;;;;;;;7.80;99.90;;;;;;4992462;28;20035;-68
2023/01/03 06:01:25;;;;;;;6.80;2.03;;;7.80;99.90;;;;;;4979029;28;19910;-68
2023/01/03 06:03:52;;;;;;;3.75;2.10;;;7.70;99.90;;;;;;4978273;28;20089;-69
2023/01/03 06:06:17;;;;;;;5.88;2.60;;;7.70;99.90;;;;;;5008030;28;20038;-67
2023/01/03 06:08:43;;;;;;;3.70;2.20;;;7.70;99.90;;;;;;4997833;28;20026;-69
2023/01/03 06:11:12;;;;;;;5.60;1.95;;;7.60;99.90;;;;;;4981099;28;20050;-69
2023/01/03 06:13:38;;;;;;;3.63;1.95;;;7.60;99.90;;;;;;4991067;28;20373;-68
2023/01/03 06:19:00;;;;;;;2.35;1.73;;;7.60;99.90;;;;;;4977633;28;20065;-68
2023/01/03 06:21:26;;;;;;;4.65;2.40;;;7.50;99.90;;;;;;4978043;28;20038;-69
2023/01/03 06:23:52;;;;;;;4.68;2.90;;;7.50;99.90;;;;;;4978077;28;20034;-68
2023/01/03 06:26:20;;;;;;;6.50;2.40;;;7.60;99.90;;;;;;4977880;28;20411;-69
2023/01/03 06:28:46;;;;;;;3.53;2.15;;;7.50;99.90;;;;;;4977450;28;20093;-68
2023/01/03 06:31:11;;;;;;;4.10;1.90;;;7.50;99.90;;;;;;4977075;28;20475;-70
2023/01/03 06:33:37;;;;;;;2.47;1.90;;;7.70;99.90;;;;;;4976493;28;20038;-68
2023/01/03 06:36:09;;;;;;;3.40;2.05;;;7.70;99.90;;;;;;4994389;28;20029;-70
2023/01/03 06:38:35;;;;;;;5.07;2.15;;;7.70;99.90;;;;;;4996805;28;20069;-68
2023/01/03 06:41:01;;;;;;;5.78;2.75;;;7.80;99.90;;;;;;4996853;28;20022;-68
2023/01/03 06:43:27;;;;;;;3.53;2.08;;;7.80;99.90;;;;;;4996714;28;20176;-68
2023/01/03 06:54:11;;;;;;;2.92;2.20;;;7.60;99.90;;;;;;4997338;28;20033;-69
2023/01/03 06:56:36;;;;;;;4.25;2.70;;;7.60;99.90;;;;;;4996826;28;20030;-69
2023/01/03 06:59:02;;;;;;;3.53;2.50;;;7.60;99.90;;;;;;4996519;28;20097;-69
2023/01/03 07:01:28;;;;;;;8.68;3.60;;;7.60;99.90;;;;;;4996324;28;20092;-69
2023/01/03 07:03:53;;;;;;;6.93;2.73;;;7.60;99.90;;;;;;4996585;28;20105;-69
2023/01/03 07:06:19;;;;;;;4.90;2.67;;;7.60;99.90;;;;;;4995438;28;20023;-69
2023/01/03 07:08:44;;;;;;;5.27;2.90;;;7.40;99.90;;;;;;4994953;28;20030;-69
2023/01/03 07:11:10;;;;;;;4.50;2.83;;;7.40;99.90;;;;;;4996297;28;20027;-69
2023/01/03 07:16:19;;;;;;;5.22;2.70;;;7.30;99.90;;;;;;4996290;28;20037;-68
2023/01/03 07:18:46;;;;;;;4.17;2.67;;;7.20;99.90;;;;;;4995364;28;20031;-68
2023/01/03 07:21:12;;;;;;;5.70;3.15;;;7.40;99.90;;;;;;4996157;28;20556;-69
2023/01/03 07:23:37;;;;;;;4.03;2.70;;;7.30;99.90;;;;;;4996194;28;20046;-70
2023/01/03 07:26:04;;;;;;;4.28;2.55;;;7.20;99.90;;;;;;4996213;28;20117;-69
2023/01/03 07:28:29;;;;;;;4.35;2.63;;;7.20;99.90;;;;;;4996063;28;20034;-69
2023/01/03 07:31:00;;;;;;;4.00;2.70;;;7.00;99.90;;;;;;4996564;28;20049;-69
2023/01/03 07:33:26;;;;;;;5.00;2.58;;;7.10;99.90;;;;;;4996550;28;20469;-69
2023/01/03 07:35:52;;;;;;;4.82;2.42;;;7.00;99.90;;;;;;4998955;28;20514;-69
2023/01/03 07:38:17;;;;;;;4.93;2.30;;;7.20;99.90;;;;;;4997558;28;20129;-69
2023/01/03 07:40:43;;;;;;;6.97;3.80;;;7.20;99.90;;;;;;4996893;28;20101;-69
2023/01/03 07:45:54;;;;;;;4.85;2.30;;;7.10;99.90;;;;;;4995788;28;20109;-70
2023/01/03 07:48:20;;;;;;;4.73;2.60;;;7.20;99.90;;;;;;4995589;28;20105;-69
2023/01/03 07:50:45;;;;;;;7.37;2.30;;;7.30;99.90;;;;;;4995385;28;20023;-69
2023/01/03 07:53:15;;;;;;;6.23;3.20;;;7.40;99.90;;;;;;4995336;28;20026;-70
2023/01/03 07:55:43;;;;;;;5.43;2.58;;;7.30;99.90;;;;;;4994064;28;20026;-70
2023/01/03 07:58:09;;;;;;;4.57;2.47;;;7.30;99.90;;;;;;4995477;28;20026;-69
2023/01/03 08:00:35;;;;;;;2.63;1.77;;;7.40;99.90;;;;;;4995587;28;20022;-69
2023/01/03 08:03:00;;;;;;;4.13;2.33;;;7.40;99.90;;;;;;4995343;28;20038;-69
2023/01/03 08:05:26;;;;;;;5.70;2.33;;;7.40;99.90;;;;;;4994791;28;20388;-69
2023/01/03 08:07:52;;;;;;;4.23;2.27;;;7.40;99.90;;;;;;4993846;28;20451;-69
2023/01/03 08:13:18;;;;;;;5.75;2.92;;;7.40;99.90;;;;;;4995615;28;20042;-69
2023/01/03 08:15:46;;;;;;;6.68;2.83;;;7.40;99.90;;;;;;4993905;28;20026;-69
2023/01/03 08:18:12;;;;;;;4.53;2.88;;;7.40;99.90;;;;;;4993606;28;20034;-68
2023/01/03 08:20:38;;;;;;;4.53;2.55;;;7.40;99.90;;;;;;4993458;28;20030;-69
2023/01/03 08:23:03;;;;;;;3.97;2.10;;;7.50;99.90;;;;;;4993789;28;20035;-68
2023/01/03 08:25:29;;;;;;;5.90;3.13;;;7.50;99.90;;;;;;4995087;28;20034;-67
2023/01/03 08:27:59;;;;;;;11.63;3.53;;;7.50;99.90;;;;;;4995444;28;20033;-71
2023/01/03 08:30:24;;;;;;;6.03;2.78;;;7.40;99.90;;;;;;4994036;28;20479;-70
2023/01/03 08:32:52;;;;;;;5.70;2.77;;;7.40;99.90;;;;;;4993584;28;20056;-71
2023/01/03 08:35:19;;;;;;;6.63;3.17;;;7.40;99.90;;;;;;4993547;28;20034;-71
2023/01/03 08:37:46;;;;;;;6.03;3.08;;;7.50;99.90;;;;;;4994689;28;20030;-71
2023/01/03 08:40:14;;;;;;;6.25;3.35;;;7.50;99.90;;;;;;4993464;28;20072;-69
2023/01/03 08:42:41;;;;;;;7.22;3.92;;;7.50;99.90;;;;;;4994520;28;20034;-70
2023/01/03 08:45:12;;;;;;;9.50;3.88;;;7.60;99.90;;;;;;4994879;28;20026;-70
2023/01/03 08:47:39;;;;;;;6.00;3.50;;;7.60;99.90;;;;;;4994483;28;20034;-71
2023/01/03 08:50:05;;;;;;;15.02;4.07;;;7.70;99.90;;;;;;4994034;28;20081;-71
2023/01/03 08:52:31;;;;;;;6.20;3.03;;;7.80;99.90;;;;;;4994369;28;20022;-71
2023/01/03 08:54:56;;;;;;;7.57;3.47;;;7.70;99.90;;;;;;4994366;28;20113;-71
2023/01/03 08:57:22;;;;;;;5.57;3.07;;;7.60;99.90;;;;;;4993076;28;20030;-71
2023/01/03 08:59:47;;;;;;;5.53;3.10;;;7.70;99.90;;;;;;4993582;28;20038;-70
2023/01/03 09:02:13;;;;;;;4.50;2.70;;;7.80;99.90;;;;;;4994244;28;20038;-70
2023/01/03 09:04:38;;;;;;;5.30;2.87;;;7.80;99.90;;;;;;4994079;28;20369;-67
2023/01/03 09:07:05;;;;;;;4.67;2.83;;;7.80;99.90;;;;;;4993858;28;20460;-68
2023/01/03 09:09:30;;;;;;;4.45;3.00;;;7.80;99.90;;;;;;4994350;28;20090;-69
2023/01/03 09:11:56;;;;;;;5.00;3.00;;;7.90;99.90;;;;;;4992709;28;20438;-66
2023/01/03 09:14:21;;;;;;;6.20;2.97;;;7.90;99.90;;;;;;4993838;28;20031;-67
2023/01/03 09:16:47;;;;;;;5.77;3.00;;;8.00;99.90;;;;;;4992563;28;20026;-68
2023/01/03 09:19:12;;;;;;;6.30;2.83;;;8.00;99.90;;;;;;4992849;28;20467;-71
2023/01/03 09:21:38;;;;;;;8.30;2.60;;;8.10;99.90;;;;;;4993823;28;20124;-70
2023/01/03 09:24:04;;;;;;;7.27;2.70;;;8.20;99.90;;;;;;4992587;28;20022;-71
2023/01/03 09:26:29;;;;;;;4.70;2.90;;;8.10;99.90;;;;;;4994366;28;20105;-71
2023/01/03 09:28:55;;;;;;;5.63;2.93;;;8.10;99.90;;;;;;4995260;28;20030;-72
2023/01/03 09:31:21;;;;;;;3.63;2.57;;;8.00;99.90;;;;;;4994777;28;20022;-71
2023/01/03 09:33:46;;;;;;;5.10;2.90;;;8.00;99.90;;;;;;4992929;28;20037;-70
2023/01/03 09:36:12;;;;;;;4.23;2.83;;;7.90;99.90;;;;;;4992489;28;20026;-71
2023/01/03 09:38:37;;;;;;;4.77;2.40;;;7.80;99.90;;;;;;4994655;28;20053;-72
2023/01/03 09:41:07;;;;;;;8.30;3.20;;;7.80;99.90;;;;;;4995455;28;20033;-71
2023/01/03 09:43:40;;;;;;;4.13;2.53;;;7.70;99.90;;;;;;4998379;28;20397;-71
2023/01/03 09:46:15;;;;;;;5.05;2.80;;;7.70;99.90;;;;;;4993262;28;20036;-71
2023/01/03 09:48:41;;;;;;;4.53;2.88;;;7.80;99.90;;;;;;4992730;28;20484;-70
2023/01/03 10:05:46;;;;;;;7.45;3.40;;;8.20;99.90;;;;;;4982674;28;20499;-69
2023/01/03 10:08:37;;;;;;;5.45;3.08;;;8.20;99.90;;;;;;4974056;28;20041;-70
2023/01/03 10:11:07;;;;;;;5.40;2.72;;;8.40;99.90;;;;;;4974471;28;20440;-71
2023/01/03 10:13:54;;;;;;;6.80;2.75;;;8.50;99.90;;;;;;4973211;28;20038;-70
2023/01/03 10:16:58;;;;;;;5.38;2.97;;;8.60;99.90;;;;;;4974097;28;20027;-71
2023/01/03 10:19:43;;;;;;;5.40;3.05;;;8.70;99.90;;;;;;4934304;29;20122;-68
2023/01/03 10:22:21;;;;;;;8.27;4.15;;;8.80;99.90;;;;;;4933399;29;20044;-68
2023/01/03 10:24:59;;;;;;;4.95;3.38;;;9.00;99.90;;;;;;4933796;29;20098;-68
2023/01/03 10:27:28;;;;;;;5.97;3.28;;;9.40;99.90;;;;;;4933087;29;20496;-67
2023/01/03 10:29:58;;;;;;;4.53;2.88;;;9.80;99.90;;;;;;4933653;29;20050;-68
2023/01/03 10:32:41;;;;;;;6.50;3.22;;;9.60;99.90;;;;;;4933516;29;20110;-68
2023/01/03 10:35:42;;;;;;;5.55;3.03;;;9.50;99.90;;;;;;4933180;29;20067;-71
2023/01/03 10:38:07;;;;;;;5.38;2.60;;;9.90;99.90;;;;;;4858671;29;20116;-71
2023/01/03 10:40:40;;;;;;;3.70;2.60;;;10.10;99.90;;;;;;4858717;29;20483;-71
2023/01/03 10:43:18;;;;;;;6.30;2.35;;;10.60;99.90;;;;;;4858028;29;20037;-71
2023/01/03 10:46:00;;;;;;;2.42;1.80;;;10.90;99.90;;;;;;4858217;29;20034;-71
2023/01/03 10:48:37;;;;;;;2.40;1.95;;;11.10;99.90;;;;;;4858059;29;20064;-70
2023/01/03 10:51:04;;;;;;;;;;;10.90;99.90;;;;;;4842873;29;20120;-67
2023/01/03 10:53:35;;;;;;;6.88;2.15;;;10.90;99.90;;;;;;4861340;29;20366;-67
2023/01/03 10:56:01;;;;;;;2.78;1.70;;;10.80;99.90;;;;;;4914181;29;20494;-68
2023/01/03 10:58:27;;;;;;;3.60;2.05;;;10.90;99.90;;;;;;4917240;29;20082;-66
2023/01/03 11:01:08;;;;;;;4.78;1.73;;;11.20;99.90;;;;;;4917209;29;20059;-66
2023/01/03 11:03:34;;;;;;;3.55;1.65;;;11.40;99.90;;;;;;4918023;29;20036;-66
2023/01/03 11:05:59;;;;;;;3.40;1.65;;;11.50;99.90;;;;;;4931322;29;20110;-66
2023/01/03 11:08:44;;;;;;;3.00;1.50;;;11.20;99.90;;;;;;4936078;29;20536;-66
2023/01/03 11:11:32;;;;;;;2.10;1.27;;;11.30;99.90;;;;;;4925238;28;20023;-67
2023/01/03 11:14:22;;;;;;;2.90;1.80;;;11.40;99.90;;;;;;4977257;28;20058;-66
2023/01/03 11:16:56;;;;;;;2.47;1.55;;;11.30;99.90;;;;;;4976542;28;20037;-67
2023/01/03 11:19:26;;;;;;;4.28;1.60;;;11.10;99.90;;;;;;4977249;28;20113;-66
2023/01/03 11:22:44;;;;;;;6.30;2.00;;;10.60;99.90;;;;;;4976583;28;20054;-68
2023/01/03 11:25:19;;;;;;;6.82;2.10;;;10.40;99.90;;;;;;4936000;29;20099;-66
2023/01/03 11:28:12;;;;;;;4.07;1.73;;;10.30;99.90;;;;;;4935809;29;20521;-67
2023/01/03 11:30:37;;;;;;;6.20;1.90;;;10.40;99.90;;;;;;4935937;29;20039;-67
2023/01/03 11:33:10;;;;;;;4.43;1.87;;;10.30;99.90;;;;;;4935809;29;20414;-67
2023/01/03 11:35:52;;;;;;;4.53;2.00;;;10.40;99.90;;;;;;4947333;28;20039;-66
2023/01/03 11:38:49;;;;;;;5.15;2.15;;;10.50;99.90;;;;;;4954865;29;20038;-66
2023/01/03 11:41:30;;;;;;;5.85;2.10;;;10.60;99.90;;;;;;4954980;29;20094;-69
2023/01/03 11:44:52;;;;;;;4.40;1.92;;;10.60;99.90;;;;;;4955194;29;20070;-69
2023/01/03 11:47:36;;;;;;;3.15;1.50;;;10.60;99.90;;;;;;4915605;29;20587;-69
2023/01/03 11:50:11;;;;;;;2.60;1.50;;;10.60;99.90;;;;;;4954732;28;20027;-69
2023/01/03 11:52:46;;;;;;;2.08;1.35;;;10.60;99.90;;;;;;4954605;28;20079;-70
2023/01/03 11:55:14;;;;;;;4.38;1.50;;;10.50;99.90;;;;;;4938601;29;20126;-69
2023/01/03 11:58:19;;;;;;;3.95;1.88;;;10.60;99.90;;;;;;4954516;28;20459;-70
2023/01/03 12:01:03;;;;;;;5.40;1.80;;;10.70;99.90;;;;;;4954708;28;20456;-69
2023/01/03 12:03:59;;;;;;;2.05;1.50;;;10.70;99.90;;;;;;4975223;28;20034;-69
2023/01/03 12:06:44;;;;;;;2.03;1.27;;;10.80;99.90;;;;;;4993349;28;20094;-66
2023/01/03 12:09:19;;;;;;;2.22;1.40;;;10.70;99.90;;;;;;4995153;28;20481;-66
2023/01/03 12:12:07;;;;;;;2.35;1.30;;;10.80;99.90;;;;;;4995726;28;20399;-66
2023/01/03 12:14:38;;;;;;;3.65;1.23;;;10.80;99.90;;;;;;4995237;28;20120;-66
2023/01/03 12:17:16;;;;;;;2.63;1.40;;;10.90;99.90;;;;;;4994970;28;20523;-70
2023/01/03 12:19:49;;;;;;;3.72;1.77;;;11.00;99.90;;;;;;4995506;28;20034;-67
2023/01/03 12:22:44;;;;;;;3.30;1.38;;;11.10;99.90;;;;;;4994549;28;20034;-68
2023/01/03 12:25:25;;;;;;;2.85;1.23;;;11.00;99.90;;;;;;4988822;28;20049;-68
2023/01/03 12:28:09;;;;;;;2.65;1.75;;;11.10;99.90;;;;;;4994477;28;20101;-68
2023/01/03 12:30:43;;;;;;;2.60;1.30;;;11.00;99.90;;;;;;4995090;28;20061;-68
2023/01/03 12:33:29;;;;;;;3.25;1.30;;;11.10;99.90;;;;;;4994548;28;20030;-70
2023/01/03 12:36:04;;;;;;;2.65;1.23;;;11.10;99.90;;;;;;4994550;28;20076;-71
2023/01/03 12:38:39;;;;;;;3.08;1.40;;;11.10;99.90;;;;;;4993825;28;20101;-70
2023/01/03 12:41:26;;;;;;;3.42;1.20;;;11.20;99.90;;;;;;4994762;28;20041;-69
2023/01/03 12:44:16;;;;;;;2.45;1.10;;;11.20;99.90;;;;;;4994289;28;20057;-69
2023/01/03 12:46:50;;;;;;;1.95;1.25;;;11.10;99.90;;;;;;4994366;28;20160;-71
2023/01/03 12:49:34;;;;;;;2.88;1.20;;;11.00;99.90;;;;;;4994435;28;20049;-70
2023/01/03 12:51:59;;;;;;;2.53;0.98;;;11.00;99.90;;;;;;4994063;28;20106;-70
2023/01/03 12:54:41;;;;;;;4.03;0.77;;;10.90;99.90;;;;;;4994477;28;20177;-66
2023/01/03 12:57:45;;;;;;;2.33;1.20;;;11.00;99.90;;;;;;4994468;28;20031;-67
2023/01/03 13:00:29;;;;;;;2.90;1.10;;;11.00;99.90;;;;;;4994643;28;20068;-67
2023/01/03 13:03:21;;;;;;;2.65;1.00;;;11.00;99.90;;;;;;4994408;28;20447;-66
2023/01/03 13:05:53;;;;;;;1.42;0.82;;;11.10;99.90;;;;;;4993570;28;20423;-68
2023/01/03 13:08:42;;;;;;;5.00;1.08;;;11.30;99.90;;;;;;4994083;28;20029;-68
2023/01/03 13:11:37;;;;;;;3.78;1.27;;;11.30;99.90;;;;;;4994389;28;20034;-67
2023/01/03 13:14:18;;;;;;;3.65;0.90;;;11.30;99.90;;;;;;4994102;28;20033;-68
2023/01/03 13:16:49;;;;;;;4.38;1.05;;;11.20;99.90;;;;;;4991986;28;20054;-66
2023/01/03 13:19:21;;;;;;;2.08;0.70;;;11.30;99.90;;;;;;4994519;28;20034;-67
2023/01/03 13:21:52;;;;;;;2.45;0.90;;;11.30;99.90;;;;;;4993640;28;20030;-65
2023/01/03 13:24:40;;;;;;;2.30;0.70;;;11.40;99.90;;;;;;4994696;28;20333;-65
2023/01/03 13:27:19;;;;;;;3.58;0.93;;;11.30;99.90;;;;;;4992589;28;20390;-65
2023/01/03 13:29:57;;;;;;;1.38;0.65;;;11.40;99.90;;;;;;4992341;28;20033;-66
2023/01/03 13:32:22;;;;;;;2.70;0.82;;;11.40;99.90;;;;;;4992376;28;20029;-66
2023/01/03 13:34:57;;;;;;;1.40;0.60;;;11.20;99.90;;;;;;4993729;28;20027;-66
2023/01/03 13:37:27;;;;;;;3.10;0.70;;;11.10;99.90;;;;;;4993337;28;20066;-66
2023/01/03 13:40:00;;;;;;;1.42;0.70;;;11.20;99.90;;;;;;4993628;28;20547;-66
2023/01/03 13:42:38;;;;;;;3.55;0.77;;;11.20;99.90;;;;;;4993785;28;20448;-67
2023/01/03 13:45:18;;;;;;;2.03;0.90;;;11.30;99.90;;;;;;4993518;28;20022;-67
2023/01/03 13:47:49;;;;;;;1.63;0.80;;;11.20;99.90;;;;;;4992193;28;20034;-67
2023/01/03 13:50:25;;;;;;;4.07;0.80;;;11.30;99.90;;;;;;4993918;28;20026;-66
2023/01/03 13:53:01;;;;;;;2.63;0.95;;;11.40;99.90;;;;;;4993419;28;20022;-67
2023/01/03 13:55:46;;;;;;;2.40;0.80;;;11.30;99.90;;;;;;4993544;28;20053;-67
2023/01/03 13:58:45;;;;;;;2.40;0.90;;;11.30;99.90;;;;;;4993306;28;20456;-66
2023/01/03 14:01:31;;;;;;;4.43;0.82;;;11.40;99.90;;;;;;4943266;28;20129;-67
2023/01/03 14:04:15;;;;;;;4.57;1.10;;;11.40;99.90;;;;;;4993478;28;20495;-67
2023/01/03 14:06:59;;;;;;;2.80;1.10;;;11.40;99.90;;;;;;4991953;28;20027;-67
2023/01/03 14:09:33;;;;;;;1.75;0.80;;;11.20;99.90;;;;;;4993429;28;20022;-67
2023/01/03 14:12:38;;;;;;;1.75;0.90;;;11.10;99.90;;;;;;4995187;28;20494;-67
2023/01/03 14:15:16;;;;;;;4.05;1.15;;;11.10;99.90;;;;;;4995585;28;20029;-67
2023/01/03 14:17:47;;;;;;;2.25;1.15;;;11.10;99.90;;;;;;4993885;28;20038;-67
2023/01/03 14:20:25;;;;;;;4.35;1.02;;;11.20;99.90;;;;;;4995753;28;20026;-67
2023/01/03 14:22:52;;;;;;;2.70;1.42;;;11.20;99.90;;;;;;4995268;28;20026;-67
2023/01/03 14:25:34;;;;;;;2.72;0.90;;;11.20;99.90;;;;;;4995919;28;20031;-67
2023/01/03 14:28:30;;;;;;;5.22;1.08;;;11.10;99.90;;;;;;4999148;28;20030;-67
2023/01/03 14:31:06;;;;;;;2.45;0.90;;;11.20;99.90;;;;;;4997370;28;20026;-67